802 км

Карта отелей и гостиниц, располагающихся рядом с аэропортом 802 км :

802 км Ханты-Мансийский автономный округ - Югра 63° 30' 36.2412" N, 64° 14' 17.7612" E
802 км Ханты-Мансийский автономный округ - Югра 63° 30' 36.2412" N, 64° 14' 17.7612" E
Код аэродрома ИКАО
HBB0
Код аэродрома RU
ХББ0
Координаты
N63.51007° E064.23827°
Превышение над уровнем моря
55
Основная полоса
Курс магнитный
Длина основной ВПП
Ширина основной ВПП
Покрытие основной ВПП
Освещение ВПП
Тип: 
Вертодром
Класс аэродрома: 
Принадлежность: 
ГА
Статус: 
Недействующий
Сайт: 
E-mail аэродрома: 
Страна: 
Россия
Регион: 
Ханты-Мансийский автономный округ - Югра
Город: 
Дополнительная информация: 

Найти трансфер

С помощью этой формы Вы можете найти трансфер из аэропорта 802 км в город, аэропорт или вокзал:

Карта места

Javascript is required to view this map.

Погода в аэропортах:

Авиационная погода в Кокшетау

Регион: 
Погода METAR: 
UACK 281000Z 09011MPS 7000 -RA OVC007 03/02 Q1010 R02/250250 NOSIG RMK QFE734/0979
Время наблюдения
2021-09-28T10:00:00Z
Температура C
3.0
Точка росы
2.0
Направление ветра
90
Скорость ветра (узлы)
21
Метео видимость
4.35
Явления погоды
-RA
Условия полета
IFR
Аэропорт подробнее: 

Авиационная погода в Братске

Регион: 
Погода METAR: 
UIBB 281200Z 31004MPS 280V340 9999 -SHSN SCT033CB M00/M00 Q1016 R30/290150 NOSIG RMK QFE719/0959
Время наблюдения
2021-09-28T12:00:00Z
Температура C
0.0
Точка росы
0.0
Направление ветра
310
Скорость ветра (узлы)
8
Метео видимость
6.21
Явления погоды
-SHSN
Условия полета
VFR
Аэропорт подробнее: 

Авиационная погода в Волгограде

Регион: 
Погода METAR: 
URWW 281200Z 07005MPS 9999 -SHRA BKN037CB 12/08 Q1020 R06/010070 TEMPO 1200 TSRAGR BKN004 SCT020CB
Время наблюдения
2021-09-28T12:00:00Z
Температура C
12.0
Точка росы
8.0
Направление ветра
70
Скорость ветра (узлы)
10
Метео видимость
6.21
Явления погоды
-SHRA
Условия полета
VFR
Аэропорт подробнее: 

Авиационная погода в Костанае

Регион: 
Погода METAR: 
UAUU 281200Z 04009G15MPS 9999 -RA BKN011 OVC033 04/03 Q1011 R33/290160 NOSIG RMK QFE742/0990
Время наблюдения
2021-09-28T12:00:00Z
Температура C
4.0
Точка росы
3.0
Направление ветра
40
Скорость ветра (узлы)
17
Метео видимость
6.21
Явления погоды
-RA
Условия полета
MVFR
Аэропорт подробнее: